Time;durP1;ratioP1;P1;durP2;ratioP2;P2;SDS_P1;SDS_P2;PMS_P1;PMS_P2;Temp;Humidity;BMP_temperature;BMP_pressure;BME280_temperature;BME280_humidity;BME280_pressure;Samples;Min_cycle;Max_cycle;Signal;HPM_P1;HPM_P2
2024/04/03 00:01:39;;;;;;;17.97;17.33;;;21.80;64.20;;;;;;5072214;28;20225;-66
2024/04/03 00:04:06;;;;;;;18.77;18.07;;;21.80;64.20;;;;;;5053638;28;20494;-66
2024/04/03 00:06:32;;;;;;;18.00;17.40;;;21.80;64.30;;;;;;5053571;28;20256;-66
2024/04/03 00:08:59;;;;;;;18.40;17.60;;;21.80;64.30;;;;;;5053189;28;20452;-66
2024/04/03 00:11:26;;;;;;;18.50;17.90;;;21.70;64.30;;;;;;5054496;28;20263;-66
2024/04/03 00:13:55;;;;;;;19.03;18.33;;;21.70;64.40;;;;;;5073466;28;20462;-66
2024/04/03 00:16:21;;;;;;;18.67;18.00;;;21.70;64.50;;;;;;5073424;28;20534;-66
2024/04/03 00:18:48;;;;;;;18.27;17.57;;;21.70;64.40;;;;;;5072941;28;20471;-66
2024/04/03 00:21:14;;;;;;;18.20;17.50;;;21.70;64.40;;;;;;5073168;28;20627;-66
2024/04/03 00:23:40;;;;;;;18.20;17.57;;;21.70;64.50;;;;;;5056613;28;20442;-66
2024/04/03 00:26:06;;;;;;;17.90;17.30;;;21.70;64.50;;;;;;5073209;28;20538;-66
2024/04/03 00:28:34;;;;;;;18.50;17.80;;;21.70;64.50;;;;;;5073103;28;20470;-66
2024/04/03 00:31:01;;;;;;;18.57;17.87;;;21.70;64.60;;;;;;5072922;28;20224;-66
2024/04/03 00:33:28;;;;;;;18.63;17.93;;;21.70;64.70;;;;;;5055544;28;20571;-66
2024/04/03 00:35:55;;;;;;;18.20;17.60;;;21.60;64.70;;;;;;5053004;28;20440;-66
2024/04/03 00:38:22;;;;;;;18.03;17.43;;;21.60;64.70;;;;;;5053051;28;20440;-66
2024/04/03 00:40:58;;;;;;;18.30;17.60;;;21.70;64.90;;;;;;5052336;28;20511;-66
2024/04/03 00:43:27;;;;;;;18.50;17.80;;;21.60;64.90;;;;;;5069289;28;20462;-66
2024/04/03 00:45:57;;;;;;;18.43;17.73;;;21.60;65.00;;;;;;5072660;28;20439;-66
2024/04/03 00:48:24;;;;;;;18.57;17.97;;;21.60;65.00;;;;;;5073016;28;20443;-66
2024/04/03 00:50:53;;;;;;;18.30;17.70;;;21.60;65.00;;;;;;5072150;28;20546;-66
2024/04/03 00:53:20;;;;;;;18.30;17.70;;;21.60;65.00;;;;;;5056476;28;20518;-66
2024/04/03 00:55:47;;;;;;;17.90;17.30;;;21.60;65.00;;;;;;5052551;28;20444;-66
2024/04/03 00:58:14;;;;;;;18.00;17.40;;;21.60;65.00;;;;;;5052874;28;20440;-66
2024/04/03 01:00:40;;;;;;;18.47;17.87;;;21.50;65.10;;;;;;5051542;28;20480;-66
2024/04/03 01:03:08;;;;;;;18.10;17.50;;;21.60;65.30;;;;;;5066167;28;20459;-66
2024/04/03 01:05:34;;;;;;;18.07;17.37;;;21.60;65.30;;;;;;5072632;28;20209;-66
2024/04/03 01:08:02;;;;;;;18.40;17.70;;;21.50;65.10;;;;;;5072362;28;20450;-66
2024/04/03 01:10:27;;;;;;;18.63;18.03;;;21.60;65.40;;;;;;5071838;28;20205;-66
2024/04/03 01:12:55;;;;;;;18.40;17.70;;;21.60;65.30;;;;;;5059950;28;21009;-66
2024/04/03 01:15:21;;;;;;;18.30;17.70;;;21.50;65.20;;;;;;5052214;28;20202;-66
2024/04/03 01:17:47;;;;;;;17.97;17.37;;;21.50;65.30;;;;;;5052259;28;20448;-66
2024/04/03 01:20:16;;;;;;;18.13;17.53;;;21.50;65.40;;;;;;5055025;28;20556;-66
2024/04/03 01:22:43;;;;;;;18.03;17.43;;;21.50;65.40;;;;;;5071864;28;20490;-66
2024/04/03 01:25:10;;;;;;;18.03;17.43;;;21.50;65.50;;;;;;5072083;28;20534;-66
2024/04/03 01:27:37;;;;;;;17.90;17.30;;;21.50;65.50;;;;;;5072015;28;20451;-66
2024/04/03 01:30:04;;;;;;;17.90;17.30;;;21.50;66.30;;;;;;5069601;28;20450;-66
2024/04/03 01:32:31;;;;;;;18.30;17.70;;;21.50;65.70;;;;;;5051809;28;20529;-66
2024/04/03 01:34:57;;;;;;;19.10;18.40;;;21.50;65.60;;;;;;5051894;28;20444;-66
2024/04/03 01:37:24;;;;;;;18.03;17.43;;;21.50;65.80;;;;;;5051810;28;20452;-66
2024/04/03 01:39:50;;;;;;;18.20;17.50;;;21.50;65.80;;;;;;5055825;28;20900;-66
2024/04/03 01:42:20;;;;;;;17.80;17.20;;;21.50;65.90;;;;;;5069113;28;20482;-66
2024/04/03 01:44:47;;;;;;;18.70;18.03;;;21.40;65.90;;;;;;5071867;28;20200;-66
2024/04/03 01:47:14;;;;;;;18.40;17.80;;;21.40;66.00;;;;;;5071684;28;20502;-66
2024/04/03 01:49:40;;;;;;;21.07;20.37;;;21.40;66.00;;;;;;5063426;28;20935;-66
2024/04/03 01:52:07;;;;;;;21.13;20.30;;;21.40;66.10;;;;;;5051709;28;20459;-66
2024/04/03 01:54:33;;;;;;;18.77;18.07;;;21.40;66.00;;;;;;5051675;28;20605;-66
2024/04/03 01:56:59;;;;;;;18.20;17.50;;;21.40;66.00;;;;;;5051646;28;20443;-66
2024/04/03 01:59:26;;;;;;;18.57;17.87;;;21.40;66.00;;;;;;5051737;28;20542;-66
2024/04/03 02:01:53;;;;;;;17.93;17.30;;;21.50;66.10;;;;;;5051520;28;20495;-66
2024/04/03 02:04:19;;;;;;;18.57;17.97;;;21.40;66.10;;;;;;5051539;28;20443;-66
2024/04/03 02:06:45;;;;;;;18.40;17.70;;;21.40;66.10;;;;;;5051573;28;20440;-66
2024/04/03 02:09:12;;;;;;;18.43;17.73;;;21.40;66.20;;;;;;5059938;28;20396;-65
2024/04/03 02:11:39;;;;;;;18.93;18.23;;;21.40;66.30;;;;;;5071422;28;20482;-66
2024/04/03 02:14:06;;;;;;;18.20;17.60;;;21.40;66.20;;;;;;5073822;28;20435;-66
2024/04/03 02:16:35;;;;;;;18.60;17.90;;;21.40;66.20;;;;;;5075446;28;20473;-66
2024/04/03 02:19:01;;;;;;;18.63;18.03;;;21.40;66.20;;;;;;5065028;28;20443;-66
2024/04/03 02:21:28;;;;;;;18.50;17.70;;;21.40;66.30;;;;;;5055237;28;20480;-66
2024/04/03 02:23:54;;;;;;;18.50;17.80;;;21.40;66.30;;;;;;5055223;28;20204;-66
2024/04/03 02:26:21;;;;;;;19.20;18.40;;;21.40;66.40;;;;;;5055375;28;20443;-66
2024/04/03 02:28:47;;;;;;;18.87;18.00;;;21.40;66.40;;;;;;5065101;28;20193;-66
2024/04/03 02:31:15;;;;;;;18.70;18.00;;;21.40;66.40;;;;;;5074994;28;20442;-66
2024/04/03 02:33:45;;;;;;;18.70;18.00;;;21.30;66.40;;;;;;5075212;28;20489;-67
2024/04/03 02:36:12;;;;;;;18.80;18.10;;;21.40;66.60;;;;;;5075247;28;20458;-66
2024/04/03 02:38:39;;;;;;;19.13;18.43;;;21.30;66.40;;;;;;5065961;28;20864;-66
2024/04/03 02:41:05;;;;;;;18.20;17.60;;;21.40;66.40;;;;;;5055069;28;20490;-66
2024/04/03 02:43:32;;;;;;;18.83;18.07;;;21.40;66.40;;;;;;5054944;28;20962;-66
2024/04/03 02:45:58;;;;;;;18.23;17.60;;;21.30;66.30;;;;;;5055174;28;20445;-67
2024/04/03 02:48:25;;;;;;;18.67;17.97;;;21.40;66.40;;;;;;5074785;28;20961;-66
2024/04/03 02:51:01;;;;;;;18.20;17.50;;;21.30;66.40;;;;;;5074341;28;20953;-67
2024/04/03 02:53:29;;;;;;;18.87;18.17;;;21.30;66.40;;;;;;5074791;28;20462;-66
2024/04/03 02:55:58;;;;;;;18.67;17.97;;;21.30;66.50;;;;;;5074613;28;20857;-66
2024/04/03 02:58:25;;;;;;;18.90;18.20;;;21.30;66.60;;;;;;5055090;28;20432;-66
2024/04/03 03:00:58;;;;;;;19.10;18.40;;;21.40;66.70;;;;;;5054351;28;20455;-66
2024/04/03 03:03:26;;;;;;;19.97;19.17;;;21.30;66.70;;;;;;5054880;28;20464;-66
2024/04/03 03:05:53;;;;;;;19.40;18.60;;;21.30;66.80;;;;;;5055515;28;20444;-66
2024/04/03 03:08:22;;;;;;;18.90;18.20;;;21.30;66.80;;;;;;5074405;28;20843;-66
2024/04/03 03:10:47;;;;;;;19.13;18.43;;;21.40;66.70;;;;;;5075003;28;20438;-66
2024/04/03 03:13:14;;;;;;;19.30;18.60;;;21.30;66.80;;;;;;5074933;28;20998;-66
2024/04/03 03:15:40;;;;;;;19.50;18.77;;;21.30;66.80;;;;;;5074075;28;20668;-66
2024/04/03 03:18:07;;;;;;;19.60;18.80;;;21.30;66.90;;;;;;5061125;28;20443;-67
2024/04/03 03:20:34;;;;;;;19.00;18.30;;;21.30;66.80;;;;;;5074414;28;20217;-65
2024/04/03 03:23:00;;;;;;;19.10;18.40;;;21.30;66.80;;;;;;5074342;28;20483;-66
2024/04/03 03:25:27;;;;;;;19.30;18.60;;;21.30;66.60;;;;;;5074163;28;20436;-66
2024/04/03 03:27:54;;;;;;;19.30;18.60;;;21.30;66.70;;;;;;5056293;28;20440;-66
2024/04/03 03:30:20;;;;;;;20.00;19.20;;;21.30;66.80;;;;;;5054202;28;20447;-66
2024/04/03 03:32:46;;;;;;;19.70;18.93;;;21.30;66.90;;;;;;5054170;28;20464;-65
2024/04/03 03:35:12;;;;;;;19.57;18.80;;;21.30;67.00;;;;;;5054048;28;20205;-66
2024/04/03 03:37:39;;;;;;;19.10;18.40;;;21.30;66.80;;;;;;5072104;28;20438;-66
2024/04/03 03:40:06;;;;;;;19.80;19.00;;;21.30;66.90;;;;;;5073711;28;20200;-66
2024/04/03 03:42:34;;;;;;;19.00;18.30;;;21.30;66.90;;;;;;5073781;28;20827;-65
2024/04/03 03:45:01;;;;;;;19.93;19.13;;;21.30;67.00;;;;;;5073821;28;20447;-66
2024/04/03 03:47:27;;;;;;;19.57;18.77;;;21.30;66.90;;;;;;5056897;28;20482;-65
2024/04/03 03:52:38;;;;;;;19.60;18.90;;;21.30;66.80;;;;;;5053848;28;20581;-66
2024/04/03 03:55:04;;;;;;;19.63;18.93;;;21.30;66.90;;;;;;5063849;28;20440;-66
2024/04/03 03:57:31;;;;;;;20.07;19.27;;;21.30;66.90;;;;;;5073700;28;20463;-66
2024/04/03 04:00:00;;;;;;;20.50;19.70;;;21.30;66.80;;;;;;5073158;28;20451;-67
2024/04/03 04:02:27;;;;;;;19.83;19.03;;;21.30;66.90;;;;;;5073377;28;20494;-66
2024/04/03 04:04:53;;;;;;;20.63;19.53;;;21.20;66.80;;;;;;5064539;28;20808;-66
2024/04/03 04:07:21;;;;;;;20.60;19.80;;;21.30;66.90;;;;;;5053364;28;20490;-66
2024/04/03 04:09:48;;;;;;;20.80;20.00;;;21.30;66.80;;;;;;5052975;28;20808;-67
2024/04/03 04:12:15;;;;;;;20.57;19.80;;;21.30;66.90;;;;;;5053226;28;20456;-66
2024/04/03 04:14:41;;;;;;;20.97;20.17;;;21.30;67.00;;;;;;5052716;28;20522;-66
2024/04/03 04:17:09;;;;;;;20.80;20.00;;;21.30;67.00;;;;;;5053285;28;20963;-66
2024/04/03 04:19:34;;;;;;;20.73;19.93;;;21.30;67.00;;;;;;5052885;28;20447;-66
2024/04/03 04:22:01;;;;;;;20.13;19.10;;;21.30;66.90;;;;;;5053173;28;20852;-65
2024/04/03 04:24:28;;;;;;;20.03;19.23;;;21.30;67.00;;;;;;5048759;28;20297;-66
2024/04/03 04:26:59;;;;;;;19.83;19.03;;;21.30;67.00;;;;;;5033333;28;20883;-66
2024/04/03 04:29:26;;;;;;;19.50;18.80;;;21.30;67.00;;;;;;5032903;28;20452;-66
2024/04/03 04:31:53;;;;;;;20.20;19.40;;;21.30;67.10;;;;;;5033114;28;20497;-66
2024/04/03 04:34:20;;;;;;;19.90;19.20;;;21.20;66.90;;;;;;5039594;28;21008;-66
2024/04/03 04:36:47;;;;;;;21.63;20.83;;;21.30;67.20;;;;;;5072083;28;20530;-66
2024/04/03 04:39:12;;;;;;;22.27;21.47;;;21.20;67.10;;;;;;5072527;28;20501;-66
2024/04/03 04:41:39;;;;;;;21.57;20.67;;;21.30;67.10;;;;;;5072719;28;20993;-66
2024/04/03 04:44:05;;;;;;;21.30;20.57;;;21.30;66.90;;;;;;5071704;28;20233;-66
2024/04/03 04:46:32;;;;;;;20.60;19.90;;;21.30;66.90;;;;;;5052789;28;20440;-66
2024/04/03 04:48:58;;;;;;;22.30;21.50;;;21.30;67.00;;;;;;5052349;28;20444;-66
2024/04/03 04:51:26;;;;;;;22.00;21.20;;;21.30;67.00;;;;;;5052956;28;20459;-66
2024/04/03 04:53:54;;;;;;;23.03;21.83;;;21.20;67.00;;;;;;5052897;28;20569;-68
2024/04/03 04:56:21;;;;;;;20.50;19.50;;;21.30;67.60;;;;;;5071822;28;20894;-68
2024/04/03 04:58:46;;;;;;;19.40;18.70;;;21.30;67.30;;;;;;5072376;28;20934;-72
2024/04/03 05:01:13;;;;;;;19.80;19.03;;;21.30;67.40;;;;;;5066836;28;20494;-72
2024/04/03 05:03:39;;;;;;;18.63;17.93;;;21.30;67.00;;;;;;5053069;28;20212;-73
2024/04/03 05:06:06;;;;;;;19.33;18.63;;;21.30;67.40;;;;;;5052696;28;20440;-72
2024/04/03 05:08:33;;;;;;;19.30;18.50;;;21.30;67.70;;;;;;5052715;28;20289;-72
2024/04/03 05:11:00;;;;;;;20.00;19.20;;;21.30;67.80;;;;;;5055425;28;20505;-72
2024/04/03 05:13:28;;;;;;;19.33;18.63;;;21.30;67.70;;;;;;5072477;28;20827;-72
2024/04/03 05:15:55;;;;;;;19.20;18.50;;;21.30;67.90;;;;;;5072652;28;20451;-73
2024/04/03 05:18:22;;;;;;;19.73;18.93;;;21.40;68.00;;;;;;5072801;28;20439;-73
2024/04/03 05:20:49;;;;;;;19.30;18.60;;;21.30;68.60;;;;;;5071077;28;20519;-72
2024/04/03 05:23:15;;;;;;;19.27;18.47;;;21.30;67.90;;;;;;5052446;28;20480;-71
2024/04/03 05:25:43;;;;;;;19.27;18.47;;;21.40;68.00;;;;;;5052561;28;20570;-64
2024/04/03 05:28:09;;;;;;;19.83;19.03;;;21.40;68.30;;;;;;5052087;28;20247;-64
2024/04/03 05:30:36;;;;;;;19.57;18.77;;;21.40;68.00;;;;;;5051669;28;20467;-63
2024/04/03 05:33:03;;;;;;;19.60;18.80;;;21.40;67.80;;;;;;5051504;28;20235;-65
2024/04/03 05:35:30;;;;;;;19.00;18.30;;;21.40;67.50;;;;;;5051781;28;20448;-63
2024/04/03 05:37:56;;;;;;;19.30;18.60;;;21.40;67.30;;;;;;5051846;28;20479;-64
2024/04/03 05:40:23;;;;;;;19.43;18.73;;;21.50;67.20;;;;;;5051569;28;20483;-62
2024/04/03 05:42:55;;;;;;;19.20;18.50;;;21.50;67.00;;;;;;5051854;28;20295;-63
2024/04/03 05:45:23;;;;;;;19.30;18.50;;;21.50;66.80;;;;;;5051811;28;20455;-64
2024/04/03 05:47:49;;;;;;;19.30;18.60;;;21.50;66.70;;;;;;5051516;28;20471;-63
2024/04/03 05:50:17;;;;;;;19.50;18.70;;;21.50;66.50;;;;;;5051458;28;21037;-64
2024/04/03 05:52:43;;;;;;;19.40;18.70;;;21.50;66.30;;;;;;5051530;28;20229;-63
2024/04/03 05:55:10;;;;;;;19.10;18.40;;;21.50;66.20;;;;;;5051716;28;20942;-63
2024/04/03 05:57:36;;;;;;;19.60;18.90;;;21.50;66.10;;;;;;5051785;28;20445;-63
2024/04/03 06:00:05;;;;;;;19.83;19.13;;;21.60;66.00;;;;;;5051191;28;20958;-63
2024/04/03 06:02:31;;;;;;;19.87;19.10;;;21.50;65.80;;;;;;5051520;28;20302;-64
2024/04/03 06:04:58;;;;;;;22.03;21.13;;;21.60;65.80;;;;;;5051466;28;20435;-64
2024/04/03 06:07:24;;;;;;;21.00;20.10;;;21.60;65.70;;;;;;5051586;28;20575;-63
2024/04/03 06:09:51;;;;;;;21.23;20.37;;;21.60;65.50;;;;;;5051085;28;20440;-60
2024/04/03 06:12:18;;;;;;;20.90;20.10;;;21.60;65.40;;;;;;5051369;28;20468;-63
2024/04/03 06:14:44;;;;;;;21.63;20.83;;;21.60;65.30;;;;;;5051373;28;20455;-63
2024/04/03 06:17:12;;;;;;;21.27;20.47;;;21.60;65.20;;;;;;5051403;28;20448;-63
2024/04/03 06:19:38;;;;;;;20.90;20.10;;;21.60;65.00;;;;;;5051429;28;20205;-62
2024/04/03 06:22:05;;;;;;;20.70;19.90;;;21.60;65.00;;;;;;5051232;28;20491;-63
2024/04/03 06:24:31;;;;;;;20.80;20.00;;;21.60;64.90;;;;;;5051340;28;20444;-64
2024/04/03 06:26:58;;;;;;;20.73;19.83;;;21.60;64.80;;;;;;5051382;28;20514;-63
2024/04/03 06:29:24;;;;;;;21.80;21.00;;;21.60;64.70;;;;;;5050933;28;20205;-63
2024/04/03 06:31:52;;;;;;;20.53;19.73;;;21.60;64.70;;;;;;5051498;28;20464;-66
2024/04/03 06:34:19;;;;;;;20.63;19.83;;;21.60;64.60;;;;;;5051178;28;20447;-66
2024/04/03 06:36:46;;;;;;;20.97;20.10;;;21.60;64.50;;;;;;5051135;28;20927;-64
2024/04/03 06:39:12;;;;;;;20.43;19.63;;;21.60;64.40;;;;;;5050742;28;20452;-65
2024/04/03 06:41:39;;;;;;;21.10;20.30;;;21.60;64.30;;;;;;5051038;28;20993;-65
2024/04/03 06:44:05;;;;;;;20.70;19.90;;;21.60;64.20;;;;;;5051093;28;20206;-65
2024/04/03 06:46:32;;;;;;;20.60;19.80;;;21.60;64.10;;;;;;5051025;28;20539;-65
2024/04/03 06:48:58;;;;;;;21.10;20.30;;;21.60;64.00;;;;;;5050569;28;20903;-66
2024/04/03 06:51:26;;;;;;;20.53;19.73;;;21.60;64.00;;;;;;5050873;28;20467;-65
2024/04/03 06:53:53;;;;;;;21.20;20.40;;;21.60;63.90;;;;;;5050936;28;20620;-64
2024/04/03 06:56:21;;;;;;;21.13;20.23;;;21.60;63.80;;;;;;5051133;28;20444;-65
2024/04/03 06:58:48;;;;;;;21.50;20.70;;;21.60;63.70;;;;;;5050888;28;20472;-65
2024/04/03 07:01:16;;;;;;;20.87;20.07;;;21.60;63.70;;;;;;5054564;28;20543;-64
2024/04/03 07:03:42;;;;;;;21.53;20.73;;;21.60;63.60;;;;;;5054454;28;20476;-65
2024/04/03 07:06:09;;;;;;;21.00;20.20;;;21.60;63.50;;;;;;5054399;28;20939;-64
2024/04/03 07:08:36;;;;;;;20.67;19.87;;;21.60;63.50;;;;;;5054576;28;20201;-65
2024/04/03 07:11:04;;;;;;;20.57;19.77;;;21.60;63.40;;;;;;5054018;28;20450;-64
2024/04/03 07:13:30;;;;;;;20.80;20.00;;;21.60;63.30;;;;;;5054291;28;20440;-64
2024/04/03 07:15:57;;;;;;;20.90;20.10;;;21.60;63.30;;;;;;5054278;28;20440;-65
2024/04/03 07:18:23;;;;;;;20.40;19.60;;;21.60;63.20;;;;;;5054358;28;20213;-64
2024/04/03 07:20:54;;;;;;;20.73;19.90;;;21.60;63.20;;;;;;5053921;28;20531;-64
2024/04/03 07:23:25;;;;;;;20.50;19.70;;;21.60;63.10;;;;;;5054074;28;20480;-65
2024/04/03 07:25:54;;;;;;;20.80;19.93;;;21.60;63.20;;;;;;5054071;28;20814;-65
2024/04/03 07:28:20;;;;;;;21.20;20.40;;;21.60;63.10;;;;;;5054063;28;20447;-65
2024/04/03 07:30:48;;;;;;;20.80;20.00;;;21.60;63.00;;;;;;5053586;28;20444;-65
2024/04/03 07:33:14;;;;;;;20.93;20.13;;;21.60;63.00;;;;;;5053859;28;20233;-64
2024/04/03 07:35:40;;;;;;;20.43;19.63;;;21.60;63.00;;;;;;5053928;28;20494;-65
2024/04/03 07:38:07;;;;;;;20.93;20.13;;;21.60;62.90;;;;;;5054164;28;20205;-64
2024/04/03 07:40:35;;;;;;;21.60;20.70;;;21.60;62.90;;;;;;5054211;28;20444;-65
2024/04/03 07:43:03;;;;;;;21.13;20.23;;;21.60;62.80;;;;;;5054240;28;20483;-64
2024/04/03 07:45:29;;;;;;;20.03;19.23;;;21.60;62.80;;;;;;5054420;28;20468;-66
2024/04/03 07:47:59;;;;;;;21.20;20.40;;;21.60;62.80;;;;;;5054324;28;20525;-64
2024/04/03 07:50:24;;;;;;;21.40;20.60;;;21.60;62.80;;;;;;5054231;28;20828;-63
2024/04/03 07:52:51;;;;;;;21.20;20.40;;;21.60;62.70;;;;;;5054578;28;20490;-63
2024/04/03 07:55:17;;;;;;;21.10;20.30;;;21.60;62.70;;;;;;5054314;28;20554;-64
2024/04/03 07:57:44;;;;;;;21.80;21.00;;;21.60;62.60;;;;;;5053641;28;20447;-63
2024/04/03 08:00:11;;;;;;;21.13;20.33;;;21.50;62.60;;;;;;5053506;28;20817;-64
2024/04/03 08:02:41;;;;;;;21.00;20.20;;;21.60;62.50;;;;;;5053529;28;20512;-64
2024/04/03 08:05:09;;;;;;;21.27;20.47;;;21.50;62.40;;;;;;5053536;28;20459;-64
2024/04/03 08:07:36;;;;;;;20.93;20.03;;;21.60;62.50;;;;;;5053798;28;20459;-63
2024/04/03 08:10:02;;;;;;;21.57;20.77;;;21.50;62.30;;;;;;5053220;28;20444;-63
2024/04/03 08:12:29;;;;;;;20.20;19.50;;;21.50;62.30;;;;;;5053402;28;20517;-63
2024/04/03 08:14:56;;;;;;;20.07;19.37;;;21.50;62.20;;;;;;5053429;28;20209;-63
2024/04/03 08:17:24;;;;;;;21.30;20.50;;;21.50;62.20;;;;;;5053455;28;20996;-62
2024/04/03 08:19:50;;;;;;;21.67;20.87;;;21.50;62.10;;;;;;5052759;28;20931;-62
2024/04/03 08:22:17;;;;;;;21.17;20.37;;;21.50;62.10;;;;;;5053220;28;20545;-63
2024/04/03 08:24:43;;;;;;;21.30;20.50;;;21.50;62.10;;;;;;5053313;28;20440;-61
2024/04/03 08:27:10;;;;;;;20.93;20.17;;;21.50;62.00;;;;;;5053321;28;20786;-64
2024/04/03 08:29:39;;;;;;;21.10;20.20;;;21.50;62.00;;;;;;5052777;28;20213;-63
2024/04/03 08:32:06;;;;;;;20.90;20.20;;;21.50;62.00;;;;;;5052985;28;20476;-62
2024/04/03 08:34:34;;;;;;;21.00;20.20;;;21.50;62.00;;;;;;5052976;28;20451;-62
2024/04/03 08:37:00;;;;;;;21.33;20.53;;;21.50;61.90;;;;;;5053006;28;20947;-63
2024/04/03 08:39:27;;;;;;;21.07;20.27;;;21.50;61.80;;;;;;5052588;28;20440;-63
2024/04/03 08:41:58;;;;;;;20.60;19.90;;;21.50;61.80;;;;;;5052642;28;20236;-63
2024/04/03 08:44:25;;;;;;;20.87;20.07;;;21.50;61.80;;;;;;5052844;28;20456;-63
2024/04/03 08:46:54;;;;;;;20.90;20.10;;;21.50;61.80;;;;;;5052925;28;20448;-66
2024/04/03 08:49:23;;;;;;;22.03;21.23;;;21.50;61.70;;;;;;5057631;28;20471;-64
2024/04/03 08:51:57;;;;;;;21.60;20.80;;;21.50;61.70;;;;;;5057900;28;20468;-65
2024/04/03 08:54:27;;;;;;;22.73;21.93;;;21.40;61.50;;;;;;5056972;28;20478;-65
2024/04/03 08:56:53;;;;;;;21.50;20.70;;;21.40;61.50;;;;;;5055737;28;20951;-65
2024/04/03 08:59:21;;;;;;;22.20;21.40;;;21.40;61.50;;;;;;5056406;28;20447;-65
2024/04/03 09:01:48;;;;;;;23.13;22.20;;;21.40;61.60;;;;;;5057052;28;20460;-65
2024/04/03 09:04:16;;;;;;;22.20;21.40;;;21.50;61.60;;;;;;5056123;28;20476;-66
2024/04/03 09:06:43;;;;;;;21.20;20.40;;;21.40;61.50;;;;;;5054496;28;21013;-66
2024/04/03 09:09:20;;;;;;;21.80;21.00;;;21.40;61.50;;;;;;5054711;28;20822;-65
2024/04/03 09:11:48;;;;;;;22.00;21.20;;;21.40;61.40;;;;;;5055543;28;20522;-64
2024/04/03 09:14:24;;;;;;;21.70;20.90;;;21.40;61.40;;;;;;5056029;28;20451;-65
2024/04/03 09:16:50;;;;;;;21.70;20.90;;;21.40;61.40;;;;;;5058124;28;20456;-65
2024/04/03 09:19:17;;;;;;;21.60;20.80;;;21.40;61.40;;;;;;5057958;28;20450;-66
2024/04/03 09:21:43;;;;;;;22.50;21.70;;;21.40;61.40;;;;;;5057240;28;20226;-65
2024/04/03 09:24:10;;;;;;;23.60;22.70;;;21.40;61.30;;;;;;5056197;28;20545;-65
2024/04/03 09:26:44;;;;;;;22.43;21.63;;;21.40;61.30;;;;;;5057079;28;20448;-64
2024/04/03 09:29:15;;;;;;;22.07;21.27;;;21.40;61.30;;;;;;5057428;28;20449;-66
2024/04/03 09:31:41;;;;;;;20.93;20.20;;;21.40;61.20;;;;;;5057643;28;20480;-64
2024/04/03 09:34:08;;;;;;;20.70;20.00;;;21.40;61.20;;;;;;5056991;28;20440;-64
2024/04/03 09:36:34;;;;;;;21.23;20.43;;;21.40;61.20;;;;;;5055773;28;20476;-61
2024/04/03 09:39:02;;;;;;;21.40;20.60;;;21.30;61.10;;;;;;5051619;28;20452;-64
2024/04/03 09:41:30;;;;;;;21.60;20.70;;;21.30;61.10;;;;;;5051956;28;20520;-62
2024/04/03 09:44:02;;;;;;;21.30;20.60;;;21.40;61.10;;;;;;5051645;28;20480;-63
2024/04/03 09:46:40;;;;;;;20.97;20.17;;;21.30;61.00;;;;;;5052041;28;20460;-63
2024/04/03 09:49:10;;;;;;;21.30;20.50;;;21.30;61.00;;;;;;5051579;28;20456;-64
2024/04/03 09:51:36;;;;;;;21.17;20.37;;;21.30;61.00;;;;;;5051822;28;20460;-64
2024/04/03 09:54:04;;;;;;;20.90;20.10;;;21.30;61.00;;;;;;5051584;28;20448;-61
2024/04/03 09:56:30;;;;;;;20.80;20.10;;;21.30;61.00;;;;;;5051745;28;20476;-63
2024/04/03 09:59:01;;;;;;;20.30;19.60;;;21.30;61.00;;;;;;5051289;28;20527;-63
2024/04/03 10:01:29;;;;;;;21.00;20.20;;;21.30;60.90;;;;;;5051793;28;20836;-63
2024/04/03 10:04:03;;;;;;;20.80;20.00;;;21.30;60.90;;;;;;5051313;28;20525;-62
2024/04/03 10:06:34;;;;;;;20.73;19.87;;;21.30;60.90;;;;;;5051703;28;20452;-63
2024/04/03 10:09:15;;;;;;;20.70;19.90;;;21.30;60.90;;;;;;5051638;28;20494;-62
2024/04/03 10:11:46;;;;;;;20.53;19.80;;;21.30;60.90;;;;;;5051366;28;20468;-63
2024/04/03 10:14:21;;;;;;;20.33;19.63;;;21.20;60.80;;;;;;5051660;28;20443;-63
2024/04/03 10:16:47;;;;;;;20.37;19.67;;;21.20;60.80;;;;;;5051709;28;20447;-63
2024/04/03 10:19:21;;;;;;;21.07;20.27;;;21.30;60.90;;;;;;5051193;28;20534;-64
2024/04/03 10:21:47;;;;;;;20.43;19.73;;;21.20;60.80;;;;;;5051359;28;20467;-64
2024/04/03 10:24:15;;;;;;;20.43;19.70;;;21.20;60.80;;;;;;5051508;28;20480;-63
2024/04/03 10:26:41;;;;;;;20.73;19.93;;;21.20;60.80;;;;;;5051345;28;20206;-61
2024/04/03 10:29:08;;;;;;;21.07;20.27;;;21.20;60.80;;;;;;5051116;28;20440;-63
2024/04/03 10:31:35;;;;;;;20.70;19.90;;;21.20;60.80;;;;;;5051396;28;20240;-64
2024/04/03 10:34:02;;;;;;;20.90;20.13;;;21.20;60.70;;;;;;5054377;28;21016;-65
2024/04/03 10:36:28;;;;;;;21.07;20.27;;;21.20;60.70;;;;;;5057189;28;20440;-65
2024/04/03 10:38:55;;;;;;;21.20;20.40;;;21.20;60.70;;;;;;5057474;28;20448;-63
2024/04/03 10:41:22;;;;;;;20.87;20.07;;;21.20;60.70;;;;;;5057391;28;20204;-65
2024/04/03 10:43:50;;;;;;;20.53;19.73;;;21.20;60.70;;;;;;5057015;28;21024;-66
2024/04/03 10:46:22;;;;;;;20.90;20.10;;;21.20;60.70;;;;;;5056896;28;20518;-65
2024/04/03 10:48:50;;;;;;;20.70;19.90;;;21.20;60.70;;;;;;5057406;28;20444;-65
2024/04/03 10:51:17;;;;;;;20.93;20.13;;;21.20;60.70;;;;;;5058524;28;20440;-65
2024/04/03 10:53:44;;;;;;;21.80;21.00;;;21.10;60.60;;;;;;5058588;28;20455;-65
2024/04/03 10:56:10;;;;;;;20.33;19.57;;;21.20;60.70;;;;;;5058101;28;20449;-66
2024/04/03 10:58:41;;;;;;;21.13;20.33;;;21.10;60.60;;;;;;5058111;28;20463;-64
2024/04/03 11:01:10;;;;;;;21.00;20.20;;;21.10;60.50;;;;;;5057514;28;20440;-65
2024/04/03 11:03:39;;;;;;;21.20;20.40;;;21.10;60.50;;;;;;5056924;28;20479;-64
2024/04/03 11:06:06;;;;;;;20.97;20.17;;;21.10;60.50;;;;;;5055429;28;20444;-65
2024/04/03 11:08:34;;;;;;;21.20;20.40;;;21.10;60.60;;;;;;5055755;28;20444;-65
2024/04/03 11:11:04;;;;;;;21.43;20.63;;;21.10;60.60;;;;;;5054594;28;20948;-65
2024/04/03 11:13:31;;;;;;;20.50;19.70;;;21.10;60.60;;;;;;5054686;28;20952;-65
2024/04/03 11:15:57;;;;;;;21.30;20.60;;;21.10;60.50;;;;;;5054793;28;20479;-65
2024/04/03 11:18:24;;;;;;;21.27;20.47;;;21.10;60.60;;;;;;5054887;28;20460;-65
2024/04/03 11:20:50;;;;;;;20.93;20.13;;;21.10;60.50;;;;;;5054576;28;20444;-66
2024/04/03 11:23:19;;;;;;;20.83;20.03;;;21.10;60.50;;;;;;5054762;28;20847;-65
2024/04/03 11:25:44;;;;;;;20.87;20.07;;;21.10;60.50;;;;;;5054975;28;20201;-65
2024/04/03 11:28:13;;;;;;;21.20;20.40;;;21.10;60.50;;;;;;5054889;28;20786;-65
2024/04/03 11:30:41;;;;;;;21.43;20.63;;;21.10;60.50;;;;;;5053549;28;20206;-65
2024/04/03 11:33:07;;;;;;;20.40;19.70;;;21.10;60.50;;;;;;5053821;28;20464;-64
2024/04/03 11:35:33;;;;;;;20.60;19.80;;;21.10;60.50;;;;;;5054059;28;20455;-65
2024/04/03 11:38:00;;;;;;;20.27;19.50;;;21.10;60.50;;;;;;5053949;28;20444;-65
2024/04/03 11:40:28;;;;;;;20.77;19.97;;;21.10;60.50;;;;;;5053294;28;20233;-65
2024/04/03 11:42:54;;;;;;;20.97;20.17;;;21.10;60.40;;;;;;5053686;28;20484;-61
2024/04/03 11:45:20;;;;;;;20.50;19.80;;;21.00;60.30;;;;;;5053213;28;20441;-64
2024/04/03 11:47:47;;;;;;;21.70;20.90;;;21.00;60.30;;;;;;5053563;28;20447;-63
2024/04/03 11:50:13;;;;;;;21.07;20.27;;;21.00;60.30;;;;;;5053519;28;20210;-63
2024/04/03 11:52:40;;;;;;;20.30;19.50;;;21.10;60.40;;;;;;5053340;28;21078;-63
2024/04/03 11:55:06;;;;;;;20.93;20.13;;;21.00;60.30;;;;;;5053436;28;20209;-64
2024/04/03 11:57:35;;;;;;;20.67;19.87;;;21.00;60.30;;;;;;5053643;28;20440;-64
2024/04/03 12:00:01;;;;;;;20.20;19.40;;;21.00;60.30;;;;;;5053413;28;20834;-63
2024/04/03 12:02:27;;;;;;;20.53;19.80;;;21.00;60.30;;;;;;5053329;28;20585;-63
2024/04/03 12:04:53;;;;;;;21.10;20.30;;;21.00;60.30;;;;;;5053306;28;20217;-63
2024/04/03 12:07:20;;;;;;;20.37;19.63;;;21.00;60.30;;;;;;5053272;28;20455;-63
2024/04/03 12:09:46;;;;;;;21.00;20.20;;;21.00;60.30;;;;;;5052806;28;20308;-64
2024/04/03 12:12:13;;;;;;;20.37;19.57;;;21.00;60.30;;;;;;5053222;28;20517;-65
2024/04/03 12:14:43;;;;;;;20.60;19.90;;;21.00;60.30;;;;;;5053110;28;20447;-63
2024/04/03 12:17:10;;;;;;;21.27;20.47;;;21.00;60.30;;;;;;5053039;28;20549;-64
2024/04/03 12:19:44;;;;;;;20.93;20.13;;;21.00;60.30;;;;;;5052822;28;20523;-62
2024/04/03 12:22:12;;;;;;;20.50;19.70;;;21.00;60.30;;;;;;5053607;28;20463;-62
2024/04/03 12:24:38;;;;;;;20.93;20.13;;;21.00;60.30;;;;;;5053261;28;20538;-62
2024/04/03 12:27:04;;;;;;;20.60;19.80;;;20.90;60.30;;;;;;5053584;28;20448;-61
2024/04/03 12:29:30;;;;;;;20.90;20.13;;;20.90;60.30;;;;;;5053015;28;20209;-63
2024/04/03 12:31:59;;;;;;;21.00;20.30;;;20.90;60.20;;;;;;5079936;22;20847;-66